עמוד ראשי
METAR-TAF:

METAR-TAF

שדות תעופה :

Page Field

Fort Myers, פלורידה, ארצות הברית

קו רוחב: 26-35-03N, קו אורך: 081-51-45W, גובה: 5מטר

תצפית מזג אוויר נוכחית

הדו"ח נערך לפני 19דקות, בשעה 16:53 UTC
רוח 12קשר מכיוון מזרח/צפון-מזרח עם משבים עד 25קשר
טמפרטורת 32 צלסיוס
לחות 59%
לחץ 1015 hPa
ראות: 16.1קילומטר
מעט עננים בגובה 3900רגל
עננים פזורים בגובה 5500רגל

METAR: KFMY 171653Z 07012G25KT 10SM FEW039 SCT055 32/23 A2998 RMK AO2 SLP153 T03170228

זמן: 13:12 (17:12 UTC)

תחזית

הדו"ח נערך לפני 5 שעות ו 52דקות, בשעה 11:20 UTC
תחזית בתוקף מ 17 ב 12 UTC עד 18 ב 12 UTC
רוח 10קשר מכיוון מזרח
ראות: 10קילומטר
מעט עננים בגובה 1500רגל
עננים פזורים בגובה 3000רגל
מ 17 ב 1500UTC
רוח 14קשר מכיוון מזרח עם משבים עד 21קשר
ראות: 10קילומטר
עננים פזורים בגובה 3000רגל
עננים בינוניים בגובה 25000רגל
מ 18 ב 0200UTC
רוח 9קשר מכיוון מזרח
ראות: 10קילומטר
מעט עננים בגובה 4000רגל
מעט עננים בגובה 25000רגל

TAF: KFMY 171120Z 1712/1812 08010KT P6SM FEW015 SCT030 FM171500 09014G21KT P6SM SCT030 BKN250 FM180200 09009KT P6SM FEW040 FEW250

תצפיות ותחזיות מזג אוויר לגבי יותר מ- 4,000 שדות תעופה ברחבי העולם. דוחות METAR ו- TAF.

התחנות הזמינות מסומנות בנקודות צהובות ואדומות על גבי המפה.

העבר את העכבר לנקודה הצבעונית על מנת לראות את שם התחנה.

לאחר מכן, לחץ כדי לראות את תוכן ואת תחזיות מזג האוויר.

כדי לשנות את המפה: לחץ על הכפתורים הירוקים עם הפלוס השחור כדי להתקרב; על הכפתור הירוק עם המקף כדי להתרחק; או בחיצים הירוקים למפות סמוכות.


METAR-TAF: